Time;durP1;ratioP1;P1;durP2;ratioP2;P2;SDS_P1;SDS_P2;PMS_P1;PMS_P2;Temp;Humidity;BMP_temperature;BMP_pressure;BME280_temperature;BME280_humidity;BME280_pressure;Samples;Min_cycle;Max_cycle;Signal;HPM_P1;HPM_P2
2021/12/23 00:01:20;;;;;;;23.20;16.08;;;;;;;-1.68;100.00;101244.38;5015099;28;20156;-83
2021/12/23 00:03:45;;;;;;;25.20;14.18;;;;;;;-1.71;100.00;101236.63;5026600;28;20107;-83
2021/12/23 00:06:10;;;;;;;25.15;16.90;;;;;;;-1.66;100.00;101231.16;5025419;28;20390;-84
2021/12/23 00:08:36;;;;;;;26.30;16.98;;;;;;;-1.65;100.00;101232.84;5007650;28;20489;-85
2021/12/23 00:11:01;;;;;;;30.48;17.55;;;;;;;-1.64;100.00;101229.28;5023720;28;20049;-84
2021/12/23 00:13:27;;;;;;;26.92;17.48;;;;;;;-1.58;100.00;101215.84;5027254;28;20037;-85
2021/12/23 00:23:52;;;;;;;29.45;20.05;;;;;;;-1.60;100.00;101188.75;5023750;28;20044;-82
2021/12/23 00:26:18;;;;;;;27.10;19.17;;;;;;;-1.63;100.00;101187.13;5037607;28;20511;-84
2021/12/23 00:28:43;;;;;;;22.85;16.13;;;;;;;-1.61;100.00;101193.16;5027285;28;20057;-84
2021/12/23 00:31:09;;;;;;;22.30;15.35;;;;;;;-1.55;100.00;101178.84;5017238;28;20049;-84
2021/12/23 00:33:36;;;;;;;23.38;15.38;;;;;;;-1.52;100.00;101167.31;5027790;28;20034;-83
2021/12/23 00:36:04;;;;;;;26.35;16.83;;;;;;;-1.47;100.00;101149.47;5041679;28;20064;-84
2021/12/23 00:38:35;;;;;;;25.10;17.77;;;;;;;-1.48;100.00;101146.00;5042520;28;20547;-85
2021/12/23 00:41:03;;;;;;;23.60;16.67;;;;;;;-1.51;100.00;101153.22;5029476;28;20640;-84
2021/12/23 00:43:32;;;;;;;24.27;17.00;;;;;;;-1.46;100.00;101157.31;5033205;28;20034;-84
2021/12/23 00:45:57;;;;;;;;;;;;;;;-1.42;100.00;101153.56;5024531;28;21501;-84
2021/12/23 00:48:23;;;;;;;25.20;15.82;;;;;;;-1.54;100.00;101156.00;5032125;28;20286;-84
2021/12/23 00:50:49;;;;;;;24.10;15.10;;;;;;;-1.51;100.00;101155.84;5031464;28;20099;-83
2021/12/23 00:53:20;;;;;;;25.50;17.45;;;;;;;-1.45;100.00;101152.91;5011154;28;20410;-84
2021/12/23 00:55:49;;;;;;;26.35;17.42;;;;;;;-1.46;100.00;101152.03;5030369;28;20297;-84
2021/12/23 00:58:15;;;;;;;24.52;16.58;;;;;;;-1.46;100.00;101149.41;5031955;28;20045;-84
2021/12/23 01:00:41;;;;;;;22.80;16.75;;;;;;;-1.43;100.00;101135.25;5029120;28;20042;-84
2021/12/23 01:03:06;;;;;;;26.52;17.77;;;;;;;-1.42;100.00;101123.78;5030580;28;20061;-84
2021/12/23 01:05:33;;;;;;;22.73;17.25;;;;;;;-1.45;100.00;101113.41;5032471;28;20076;-83
2021/12/23 01:07:58;;;;;;;25.17;17.92;;;;;;;-1.45;100.00;101110.78;5030154;28;20454;-84
2021/12/23 01:10:24;;;;;;;25.45;16.45;;;;;;;-1.47;100.00;101108.19;5010314;28;20038;-82
2021/12/23 01:12:56;;;;;;;24.67;18.63;;;;;;;-1.46;100.00;101093.28;5029495;28;20033;-84
2021/12/23 01:18:07;;;;;;;23.27;16.65;;;;;;;-1.51;100.00;101068.97;5030823;28;20057;-82
2021/12/23 01:20:36;;;;;;;22.80;16.13;;;;;;;-1.49;100.00;101075.88;5024065;28;20041;-84
2021/12/23 01:23:09;;;;;;;26.75;18.60;;;;;;;-1.47;100.00;101066.09;5025837;28;20053;-83
2021/12/23 01:25:37;;;;;;;24.70;17.20;;;;;;;-1.46;100.00;101080.13;5033048;28;20041;-82
2021/12/23 01:28:04;;;;;;;25.63;18.13;;;;;;;-1.47;100.00;101095.03;5029889;28;20116;-83
2021/12/23 01:30:30;;;;;;;22.02;15.45;;;;;;;-1.48;100.00;101106.50;5011893;28;20494;-84
2021/12/23 01:32:56;;;;;;;22.77;13.82;;;;;;;-1.49;100.00;101110.09;5031571;28;20124;-83
2021/12/23 01:35:22;;;;;;;21.25;14.75;;;;;;;-1.47;100.00;101107.34;5035389;28;20045;-83
2021/12/23 01:37:47;;;;;;;27.13;17.00;;;;;;;-1.40;100.00;101095.59;5012352;28;20050;-84
2021/12/23 01:40:16;;;;;;;22.45;16.05;;;;;;;-1.41;100.00;101102.66;5007155;28;20029;-84
2021/12/23 01:42:42;;;;;;;22.55;18.08;;;;;;;-1.41;100.00;101080.72;4992470;28;20037;-84
2021/12/23 01:45:23;;;;;;;26.20;18.45;;;;;;;-1.43;100.00;101086.06;5028673;28;20040;-82
2021/12/23 01:47:49;;;;;;;25.50;17.48;;;;;;;-1.42;100.00;101089.56;5022875;28;20038;-82
2021/12/23 01:50:17;;;;;;;23.55;16.45;;;;;;;-1.48;100.00;101097.78;5029334;28;20042;-84
2021/12/23 01:52:43;;;;;;;26.45;18.08;;;;;;;-1.45;100.00;101079.19;5029259;28;20037;-83
2021/12/23 01:55:10;;;;;;;25.80;18.10;;;;;;;-1.48;100.00;101072.28;5030075;28;20045;-83
2021/12/23 01:57:36;;;;;;;25.77;18.63;;;;;;;-1.44;100.00;101065.06;5030025;28;20044;-83
2021/12/23 02:00:07;;;;;;;23.92;16.63;;;;;;;-1.52;100.00;101067.28;5029776;28;20037;-83
2021/12/23 02:02:33;;;;;;;27.05;18.92;;;;;;;-1.46;100.00;101064.34;5022196;28;20037;-84
2021/12/23 02:04:58;;;;;;;28.40;18.77;;;;;;;-1.49;100.00;101056.59;5025000;28;20576;-81
2021/12/23 02:07:24;;;;;;;29.85;19.85;;;;;;;-1.47;100.00;101058.19;5025930;28;20334;-83
2021/12/23 02:09:49;;;;;;;26.55;19.60;;;;;;;-1.51;100.00;101067.19;5022767;28;20262;-84
2021/12/23 02:12:16;;;;;;;23.90;18.63;;;;;;;-1.51;100.00;101051.41;5022121;28;20053;-83
2021/12/23 02:14:42;;;;;;;27.17;18.35;;;;;;;-1.52;100.00;101056.75;5024883;28;20046;-82
2021/12/23 02:17:08;;;;;;;22.95;15.27;;;;;;;-1.59;100.00;101050.94;5023360;28;20048;-84
2021/12/23 02:19:33;;;;;;;26.08;18.10;;;;;;;-1.55;100.00;101041.09;5025356;28;20297;-82
2021/12/23 02:21:59;;;;;;;25.95;19.13;;;;;;;-1.54;100.00;101030.50;5003573;28;20049;-82
2021/12/23 02:24:26;;;;;;;26.92;18.08;;;;;;;-1.53;100.00;101023.44;5027680;28;20037;-83
2021/12/23 02:26:51;;;;;;;22.23;13.90;;;;;;;-1.60;100.00;101059.78;5024333;28;20048;-82
2021/12/23 02:29:17;;;;;;;25.30;18.73;;;;;;;-1.55;100.00;101044.59;5025684;28;20075;-83
2021/12/23 02:31:48;;;;;;;26.83;19.00;;;;;;;-1.50;100.00;101034.66;5023175;28;20128;-84
2021/12/23 02:34:15;;;;;;;28.00;19.23;;;;;;;-1.48;100.00;101009.13;5023179;28;20554;-83
2021/12/23 02:36:40;;;;;;;24.50;17.98;;;;;;;-1.51;100.00;101011.06;5024959;28;20065;-84
2021/12/23 02:39:06;;;;;;;26.17;18.58;;;;;;;-1.55;100.00;100994.59;5013395;28;20040;-84
2021/12/23 02:41:31;;;;;;;26.17;16.85;;;;;;;-1.58;100.00;101015.81;5002685;28;20037;-83
2021/12/23 02:43:57;;;;;;;22.33;15.70;;;;;;;-1.60;100.00;101036.09;5003440;28;20037;-82
2021/12/23 02:46:24;;;;;;;27.08;17.30;;;;;;;-1.57;100.00;101027.19;5024894;28;20044;-82
2021/12/23 02:48:49;;;;;;;24.63;16.90;;;;;;;-1.52;100.00;101027.81;5023951;28;20475;-82
2021/12/23 02:51:16;;;;;;;27.00;18.88;;;;;;;-1.49;100.00;101017.13;5026952;28;20033;-83
2021/12/23 02:53:43;;;;;;;26.30;17.05;;;;;;;-1.54;100.00;101012.09;5022855;28;20048;-84
2021/12/23 02:56:15;;;;;;;24.95;18.38;;;;;;;-1.48;100.00;100997.75;5022527;28;20465;-85
2021/12/23 02:58:42;;;;;;;28.13;19.05;;;;;;;-1.49;100.00;100994.28;5019444;28;20159;-83
2021/12/23 03:01:08;;;;;;;27.23;19.77;;;;;;;-1.53;100.00;101011.13;5018600;28;20041;-84
2021/12/23 03:03:35;;;;;;;26.33;16.75;;;;;;;-1.51;100.00;101005.81;5023123;28;20048;-81
2021/12/23 03:06:01;;;;;;;26.33;18.30;;;;;;;-1.52;100.00;100975.16;5023646;28;20045;-83
2021/12/23 03:08:45;;;;;;;25.70;18.13;;;;;;;-1.54;100.00;101001.56;5025415;28;20052;-82
2021/12/23 03:11:14;;;;;;;26.08;17.70;;;;;;;-1.59;100.00;100988.63;5038071;28;20045;-83
2021/12/23 03:13:40;;;;;;;26.60;17.70;;;;;;;-1.60;100.00;100991.34;5020128;28;20346;-83
2021/12/23 03:16:06;;;;;;;23.52;16.67;;;;;;;-1.58;100.00;100997.41;5001926;28;20045;-84
2021/12/23 03:18:34;;;;;;;23.77;16.55;;;;;;;-1.59;100.00;100988.63;5021700;28;20048;-85
2021/12/23 03:21:00;;;;;;;25.63;18.25;;;;;;;-1.57;100.00;100996.44;5021701;28;20454;-83
2021/12/23 03:23:26;;;;;;;27.80;19.70;;;;;;;-1.60;100.00;100994.84;5022888;28;20160;-83
2021/12/23 03:25:52;;;;;;;27.60;19.00;;;;;;;-1.61;100.00;100984.41;5024096;28;20136;-83
2021/12/23 03:28:18;;;;;;;27.35;21.35;;;;;;;-1.59;100.00;100972.84;5022141;28;20068;-82
2021/12/23 03:30:45;;;;;;;28.63;20.50;;;;;;;-1.61;100.00;100972.09;5021949;28;20052;-85
2021/12/23 03:33:10;;;;;;;29.42;20.17;;;;;;;-1.63;100.00;100959.94;5023354;28;20053;-84
2021/12/23 03:35:36;;;;;;;28.15;20.98;;;;;;;-1.68;100.00;100956.69;5011867;28;20398;-82
2021/12/23 03:38:02;;;;;;;30.65;19.42;;;;;;;-1.69;100.00;100960.28;5022347;28;20429;-83
2021/12/23 03:40:28;;;;;;;27.27;18.45;;;;;;;-1.78;100.00;100958.09;5037997;28;20596;-85
2021/12/23 03:42:54;;;;;;;26.73;19.27;;;;;;;-1.78;100.00;100958.09;5005619;28;20114;-82
2021/12/23 03:45:20;;;;;;;27.08;16.85;;;;;;;-1.82;100.00;100947.75;5023573;28;20037;-83
2021/12/23 03:47:48;;;;;;;24.55;16.70;;;;;;;-1.83;100.00;100950.47;5022902;28;20041;-82
2021/12/23 03:50:17;;;;;;;26.25;18.45;;;;;;;-1.82;100.00;100945.13;5024972;28;20390;-84
2021/12/23 03:52:43;;;;;;;29.53;20.53;;;;;;;-1.89;100.00;100940.28;5003081;28;20068;-83
2021/12/23 03:55:10;;;;;;;24.23;17.55;;;;;;;-1.89;100.00;100927.97;5022690;28;20438;-83
2021/12/23 03:57:35;;;;;;;26.63;18.27;;;;;;;-1.90;100.00;100934.16;5019073;28;20238;-82
2021/12/23 04:00:02;;;;;;;29.00;20.23;;;;;;;-1.91;100.00;100935.09;5020982;28;20095;-82
2021/12/23 04:02:28;;;;;;;29.75;20.60;;;;;;;-1.92;100.00;100932.56;5005973;28;20053;-84
2021/12/23 04:04:53;;;;;;;28.40;18.55;;;;;;;-1.92;100.00;100932.56;4998957;28;20126;-84
2021/12/23 04:07:19;;;;;;;26.65;19.80;;;;;;;-1.92;100.00;100922.03;5027910;28;20491;-83
2021/12/23 04:09:44;;;;;;;28.33;20.25;;;;;;;-1.95;100.00;100906.41;5022067;28;20106;-82
2021/12/23 04:12:10;;;;;;;27.45;18.83;;;;;;;-1.96;100.00;100899.44;5018008;28;20088;-82
2021/12/23 04:14:35;;;;;;;31.02;21.65;;;;;;;-1.95;100.00;100898.53;5020416;28;20048;-84
2021/12/23 04:17:01;;;;;;;26.98;18.77;;;;;;;-1.99;100.00;100879.41;5020471;28;20774;-84
2021/12/23 04:19:30;;;;;;;27.63;17.80;;;;;;;-1.98;100.00;100870.59;4988053;28;20037;-83
2021/12/23 04:21:57;;;;;;;29.15;19.45;;;;;;;-1.99;100.00;100861.00;5020121;28;20186;-82
2021/12/23 04:24:22;;;;;;;32.15;22.23;;;;;;;-1.98;100.00;100859.22;5021409;28;20037;-84
2021/12/23 04:26:50;;;;;;;28.60;20.40;;;;;;;-1.96;100.00;100852.94;5022139;28;20081;-83
2021/12/23 04:29:15;;;;;;;29.25;21.70;;;;;;;-1.96;100.00;100859.97;5023147;28;20040;-82
2021/12/23 04:31:40;;;;;;;28.10;20.08;;;;;;;-1.91;100.00;100856.16;5021512;28;20045;-83
2021/12/23 04:34:06;;;;;;;29.95;21.70;;;;;;;-1.92;100.00;100849.22;5020690;28;20142;-84
2021/12/23 04:36:31;;;;;;;28.45;21.27;;;;;;;-1.88;100.00;100852.53;5020781;28;20064;-82
2021/12/23 04:38:58;;;;;;;28.85;21.23;;;;;;;-1.89;100.00;100856.94;5003028;28;20045;-83
2021/12/23 04:41:25;;;;;;;28.25;20.45;;;;;;;-1.86;100.00;100854.16;5022182;28;20045;-83
2021/12/23 04:43:50;;;;;;;27.30;19.08;;;;;;;-1.82;100.00;100852.19;5020949;28;20046;-83
2021/12/23 04:46:19;;;;;;;30.58;20.30;;;;;;;-1.80;100.00;100841.59;5024519;28;20060;-83
2021/12/23 04:48:45;;;;;;;29.73;20.48;;;;;;;-1.76;100.00;100843.13;5021890;28;20048;-82
2021/12/23 04:51:15;;;;;;;29.27;19.85;;;;;;;-1.77;100.00;100834.38;5023836;28;20046;-85
2021/12/23 04:53:44;;;;;;;31.80;21.92;;;;;;;-1.74;100.00;100836.84;5036889;28;20116;-83
2021/12/23 04:56:17;;;;;;;29.75;19.90;;;;;;;-1.73;100.00;100835.91;5025307;28;20405;-85
2021/12/23 04:58:43;;;;;;;35.65;22.52;;;;;;;-1.70;100.00;100821.72;5018489;28;21064;-83
2021/12/23 05:01:19;;;;;;;32.58;22.40;;;;;;;-1.69;100.00;100810.28;5028681;28;20401;-83
2021/12/23 05:03:47;;;;;;;33.22;22.52;;;;;;;-1.67;100.00;100809.28;5008680;28;20048;-82
2021/12/23 05:06:15;;;;;;;33.50;22.10;;;;;;;-1.66;100.00;100800.44;5019491;28;20115;-82
2021/12/23 05:08:41;;;;;;;31.60;22.97;;;;;;;-1.65;100.00;100793.38;5018619;28;20111;-81
2021/12/23 05:11:06;;;;;;;30.65;20.65;;;;;;;-1.68;100.00;100775.13;5021553;28;20580;-84
2021/12/23 05:13:31;;;;;;;30.48;20.88;;;;;;;-1.66;100.00;100776.75;5024311;28;20053;-84
2021/12/23 05:15:57;;;;;;;31.60;23.13;;;;;;;-1.57;100.00;100785.06;5020313;28;20509;-81
2021/12/23 05:18:22;;;;;;;29.17;18.52;;;;;;;-1.57;100.00;100777.16;5026911;28;20068;-83
2021/12/23 05:20:48;;;;;;;31.83;20.10;;;;;;;-1.56;100.00;100770.97;5016276;28;20073;-85
2021/12/23 05:23:14;;;;;;;32.67;23.05;;;;;;;-1.51;100.00;100763.66;5028769;28;20045;-85
2021/12/23 05:25:40;;;;;;;29.88;22.75;;;;;;;-1.47;100.00;100780.97;5031367;28;20095;-84
2021/12/23 05:28:05;;;;;;;32.67;23.00;;;;;;;-1.42;100.00;100789.44;5030676;28;20037;-84
2021/12/23 05:30:31;;;;;;;32.30;23.27;;;;;;;-1.36;100.00;100791.72;5030297;28;20037;-84
2021/12/23 05:32:57;;;;;;;29.70;20.02;;;;;;;-1.35;100.00;100801.34;5031171;28;20049;-82
2021/12/23 05:35:24;;;;;;;34.60;19.42;;;;;;;-1.36;100.00;100797.00;5028136;28;20045;-83
2021/12/23 05:37:50;;;;;;;30.65;17.75;;;;;;;-1.34;100.00;100808.28;5029631;28;20033;-84
2021/12/23 05:40:18;;;;;;;34.80;21.17;;;;;;;-1.31;100.00;100800.22;5030623;28;20033;-82
2021/12/23 05:42:44;;;;;;;30.87;20.20;;;;;;;-1.26;100.00;100799.97;5039658;28;20052;-82
2021/12/23 05:45:14;;;;;;;27.35;18.27;;;;;;;-1.25;100.00;100796.38;5009581;28;21347;-83
2021/12/23 05:47:41;;;;;;;36.03;21.70;;;;;;;-1.21;100.00;100792.63;5024172;28;20140;-84
2021/12/23 05:50:08;;;;;;;27.05;18.17;;;;;;;-1.21;100.00;100782.97;5027329;28;20508;-85
2021/12/23 05:52:34;;;;;;;31.77;19.90;;;;;;;-1.19;100.00;100781.06;5022046;28;20501;-83
2021/12/23 05:55:02;;;;;;;37.88;24.05;;;;;;;-1.16;100.00;100765.09;5023035;28;20033;-83
2021/12/23 05:57:29;;;;;;;30.20;18.17;;;;;;;-1.16;100.00;100754.56;5021307;28;20061;-84
2021/12/23 05:59:54;;;;;;;31.70;18.95;;;;;;;-1.15;100.00;100750.16;5020337;28;20045;-84
2021/12/23 06:02:20;;;;;;;36.28;23.40;;;;;;;-1.14;100.00;100760.59;5021732;28;20041;-82
2021/12/23 06:04:45;;;;;;;35.88;24.17;;;;;;;-1.11;100.00;100750.81;5024340;28;20041;-83
2021/12/23 06:07:11;;;;;;;31.90;20.83;;;;;;;-1.13;100.00;100764.91;5023509;28;20033;-84
2021/12/23 06:09:37;;;;;;;37.15;23.48;;;;;;;-1.11;100.00;100749.03;5004164;28;20042;-84
2021/12/23 06:12:03;;;;;;;31.77;18.52;;;;;;;-1.12;100.00;100739.44;5021663;28;20139;-85
2021/12/23 06:14:28;;;;;;;35.20;23.83;;;;;;;-1.08;100.00;100761.16;5020852;28;20188;-84
2021/12/23 06:16:55;;;;;;;34.10;23.50;;;;;;;-1.06;100.00;100764.56;5024008;28;20561;-85
2021/12/23 06:19:20;;;;;;;35.58;22.98;;;;;;;-1.05;100.00;100753.09;5020833;28;20045;-85
2021/12/23 06:21:46;;;;;;;39.30;22.95;;;;;;;-1.08;100.00;100756.75;5021263;28;20506;-85
2021/12/23 06:24:11;;;;;;;38.30;22.40;;;;;;;-1.04;100.00;100763.50;5023197;28;20120;-83
2021/12/23 06:26:36;;;;;;;33.13;22.15;;;;;;;-1.05;100.00;100766.25;5023606;28;20095;-83
2021/12/23 06:29:02;;;;;;;38.60;24.70;;;;;;;-1.01;100.00;100770.38;5022133;28;20084;-84
2021/12/23 06:31:28;;;;;;;39.60;24.02;;;;;;;-1.00;100.00;100770.31;5016940;28;20050;-85
2021/12/23 06:33:53;;;;;;;36.28;22.23;;;;;;;-1.00;100.00;100759.78;5026248;28;20045;-84
2021/12/23 06:36:20;;;;;;;40.05;26.08;;;;;;;-1.00;100.00;100765.03;5022154;28;20060;-82
2021/12/23 06:38:45;;;;;;;40.08;23.20;;;;;;;-0.99;100.00;100765.88;5018951;28;20800;-82
2021/12/23 06:41:11;;;;;;;43.35;26.63;;;;;;;-1.00;100.00;100761.56;5013694;28;20033;-83
2021/12/23 06:43:37;;;;;;;39.13;28.08;;;;;;;-1.01;100.00;100762.47;5022965;28;20483;-83
2021/12/23 06:46:03;;;;;;;41.85;26.27;;;;;;;-1.01;100.00;100746.69;5025166;28;20531;-85
2021/12/23 06:48:29;;;;;;;40.47;26.55;;;;;;;-1.00;100.00;100733.44;5023605;28;20045;-83
2021/12/23 06:50:59;;;;;;;35.70;19.88;;;;;;;-1.04;100.00;100731.06;5021852;28;20041;-84
2021/12/23 06:53:26;;;;;;;40.53;26.65;;;;;;;-0.99;100.00;100740.38;5024253;28;20049;-83
2021/12/23 06:55:54;;;;;;;34.80;19.63;;;;;;;-1.02;100.00;100745.00;5023961;28;20064;-84
2021/12/23 06:58:23;;;;;;;39.38;25.50;;;;;;;-1.01;100.00;100736.16;5012343;28;20037;-83
2021/12/23 07:00:52;;;;;;;40.80;25.25;;;;;;;-1.02;100.00;100731.81;5026727;28;20044;-85
2021/12/23 07:03:18;;;;;;;40.92;28.23;;;;;;;-1.04;100.00;100731.06;5027130;28;20143;-83
2021/12/23 07:05:43;;;;;;;46.55;25.48;;;;;;;-1.03;100.00;100744.16;5026372;28;20533;-84
2021/12/23 07:08:24;;;;;;;39.53;26.48;;;;;;;-1.07;100.00;100742.63;5000512;28;20045;-84
2021/12/23 07:10:50;;;;;;;43.88;25.50;;;;;;;-1.05;100.00;100738.13;5022619;28;20048;-83
2021/12/23 07:13:15;;;;;;;43.05;26.75;;;;;;;-1.08;100.00;100738.31;5022826;28;20037;-85
2021/12/23 07:15:41;;;;;;;40.95;27.38;;;;;;;-1.06;100.00;100748.75;5019257;28;20050;-85
2021/12/23 07:18:06;;;;;;;42.25;29.25;;;;;;;-1.03;100.00;100751.22;5005965;28;20042;-85
2021/12/23 07:20:31;;;;;;;45.83;29.55;;;;;;;-1.01;100.00;100758.06;5026992;28;20504;-85
2021/12/23 07:22:57;;;;;;;42.20;27.52;;;;;;;-1.08;100.00;100740.94;4986889;28;20127;-82
2021/12/23 07:25:23;;;;;;;42.35;27.27;;;;;;;-1.11;100.00;100750.81;5027105;28;20056;-83
2021/12/23 07:27:48;;;;;;;43.88;27.98;;;;;;;-1.11;100.00;100764.81;5024643;28;20049;-83
2021/12/23 07:30:18;;;;;;;47.17;29.60;;;;;;;-1.15;100.00;100758.91;5018418;28;20508;-83
2021/12/23 07:32:44;;;;;;;47.00;29.92;;;;;;;-1.17;100.00;100758.13;4993007;28;20037;-84
2021/12/23 07:35:10;;;;;;;49.90;30.77;;;;;;;-1.16;100.00;100765.09;5028261;28;21973;-82
2021/12/23 07:37:36;;;;;;;48.88;31.83;;;;;;;-1.21;100.00;100767.16;5021258;28;20424;-83
2021/12/23 07:40:03;;;;;;;49.97;32.63;;;;;;;-1.22;100.00;100772.50;5021554;28;20437;-82
2021/12/23 07:42:31;;;;;;;43.67;27.83;;;;;;;-1.26;100.00;100771.84;5022525;28;20048;-83
2021/12/23 07:44:56;;;;;;;45.53;28.80;;;;;;;-1.24;100.00;100777.00;5020262;28;20033;-82
2021/12/23 07:47:23;;;;;;;48.80;28.88;;;;;;;-1.25;100.00;100770.91;5019495;28;20049;-82
2021/12/23 07:49:48;;;;;;;43.65;27.35;;;;;;;-1.26;100.00;100761.31;4988676;28;20041;-83
2021/12/23 07:52:15;;;;;;;50.25;31.88;;;;;;;-1.25;100.00;100767.41;5005085;28;20060;-83
2021/12/23 07:54:41;;;;;;;50.63;31.33;;;;;;;-1.23;100.00;100755.88;5022316;28;20049;-81
2021/12/23 07:57:06;;;;;;;51.03;31.05;;;;;;;-1.15;100.00;100750.16;5018150;28;20430;-82
2021/12/23 07:59:33;;;;;;;52.25;30.55;;;;;;;-1.19;100.00;100754.72;5006836;28;20502;-82
2021/12/23 08:01:59;;;;;;;62.58;39.47;;;;;;;-1.14;100.00;100754.47;5018573;28;20128;-82
2021/12/23 08:04:25;;;;;;;55.67;34.05;;;;;;;-1.11;100.00;100754.28;5021056;28;20037;-82
2021/12/23 08:06:57;;;;;;;54.25;34.13;;;;;;;-1.10;100.00;100753.34;5021740;28;20037;-82
2021/12/23 08:09:25;;;;;;;52.53;29.77;;;;;;;-1.09;100.00;100743.66;5022842;28;20045;-83
2021/12/23 08:11:51;;;;;;;53.78;31.17;;;;;;;-1.04;100.00;100741.59;5020608;28;20107;-82
2021/12/23 08:14:16;;;;;;;42.70;27.48;;;;;;;-1.04;100.00;100733.69;5019315;28;20053;-83
2021/12/23 08:16:43;;;;;;;39.85;24.30;;;;;;;-1.01;100.00;100726.44;5021282;28;20037;-83
2021/12/23 08:19:09;;;;;;;47.00;30.95;;;;;;;-0.99;100.00;100721.09;5021871;28;20561;-83
2021/12/23 08:21:34;;;;;;;49.88;31.60;;;;;;;-0.96;100.00;100708.59;5018584;28;20045;-83
2021/12/23 08:24:00;;;;;;;48.22;30.58;;;;;;;-0.94;100.00;100701.44;5019672;28;20505;-83
2021/12/23 08:26:28;;;;;;;40.35;26.17;;;;;;;-0.94;100.00;100700.59;5037168;28;20128;-83
2021/12/23 08:28:57;;;;;;;43.95;27.73;;;;;;;-0.94;100.00;100687.44;5022658;28;20033;-82
2021/12/23 08:31:23;;;;;;;45.03;31.30;;;;;;;-0.93;100.00;100694.38;5022446;28;20325;-83
2021/12/23 08:33:49;;;;;;;39.50;21.25;;;;;;;-0.95;100.00;100698.91;5016812;28;20037;-83
2021/12/23 08:36:15;;;;;;;44.17;29.85;;;;;;;-0.91;100.00;100705.69;5024013;28;20714;-82
2021/12/23 08:38:42;;;;;;;44.42;26.40;;;;;;;-0.91;100.00;100700.41;5021798;28;20294;-82
2021/12/23 08:41:07;;;;;;;39.97;24.90;;;;;;;-0.90;100.00;100694.19;5022072;28;20096;-83
2021/12/23 08:43:34;;;;;;;42.35;26.00;;;;;;;-0.87;100.00;100695.81;5020944;28;20053;-84
2021/12/23 08:46:00;;;;;;;44.22;26.67;;;;;;;-0.84;100.00;100696.47;5019970;28;20037;-82
2021/12/23 08:48:26;;;;;;;45.08;27.60;;;;;;;-0.81;100.00;100685.72;5033181;28;20128;-83
2021/12/23 08:50:51;;;;;;;44.50;26.08;;;;;;;-0.79;100.00;100689.13;5002584;28;20042;-84
2021/12/23 08:53:17;;;;;;;42.30;27.30;;;;;;;-0.81;100.00;100664.66;5023427;28;20203;-82
2021/12/23 08:55:42;;;;;;;43.30;23.33;;;;;;;-0.78;100.00;100669.72;5021253;28;20107;-84
2021/12/23 08:58:09;;;;;;;45.33;30.10;;;;;;;-0.78;100.00;100669.72;5007202;28;20533;-83
2021/12/23 09:00:36;;;;;;;40.47;24.25;;;;;;;-0.78;100.00;100656.56;5022975;28;20052;-83
2021/12/23 09:03:03;;;;;;;49.80;31.50;;;;;;;-0.74;100.00;100655.44;5023808;28;20044;-83
2021/12/23 09:05:29;;;;;;;48.10;32.17;;;;;;;-0.74;100.00;100655.44;5023237;28;20049;-82
2021/12/23 09:07:54;;;;;;;43.42;27.42;;;;;;;-0.72;100.00;100643.03;5022277;28;20041;-82
2021/12/23 09:10:20;;;;;;;47.17;30.10;;;;;;;-0.73;100.00;100638.69;5021338;28;20754;-83
2021/12/23 09:12:46;;;;;;;49.40;32.40;;;;;;;-0.71;100.00;100628.06;5023552;28;20096;-82
2021/12/23 09:15:12;;;;;;;47.70;30.25;;;;;;;-0.73;100.00;100620.22;5024477;28;20437;-82
2021/12/23 09:17:39;;;;;;;47.30;28.45;;;;;;;-0.72;100.00;100616.66;5026732;28;20084;-83
2021/12/23 09:20:07;;;;;;;41.95;23.48;;;;;;;-0.72;100.00;100619.31;5021850;28;20125;-82
2021/12/23 09:22:33;;;;;;;48.95;30.98;;;;;;;-0.69;100.00;100610.38;5021739;28;20044;-81
2021/12/23 09:25:03;;;;;;;51.60;32.17;;;;;;;-0.66;100.00;100617.19;5023917;28;20048;-84
2021/12/23 09:27:39;;;;;;;43.92;27.90;;;;;;;-0.65;100.00;100629.47;5021751;28;20038;-83
2021/12/23 09:32:54;;;;;;;51.35;31.83;;;;;;;-0.61;100.00;100623.88;5024497;28;20044;-82
2021/12/23 09:35:23;;;;;;;53.72;26.92;;;;;;;-0.60;100.00;100627.38;5026278;28;20072;-83
2021/12/23 09:37:48;;;;;;;50.30;29.53;;;;;;;-0.56;100.00;100629.72;5004670;28;20045;-82
2021/12/23 09:40:14;;;;;;;50.22;33.80;;;;;;;-0.53;100.00;100623.41;5028155;28;20037;-82
2021/12/23 09:42:42;;;;;;;51.10;33.58;;;;;;;-0.50;100.00;100605.59;5027838;28;20049;-83
2021/12/23 09:45:12;;;;;;;46.75;28.52;;;;;;;-0.47;100.00;100607.19;4985105;28;20581;-83
2021/12/23 09:47:41;;;;;;;48.58;32.72;;;;;;;-0.43;100.00;100594.66;5019506;28;20462;-83
2021/12/23 09:50:09;;;;;;;;;;;;;;;-0.43;100.00;100592.88;5007540;28;20083;-83
2021/12/23 09:52:35;;;;;;;46.20;29.77;;;;;;;-0.50;100.00;100594.22;5025657;28;20408;-83
2021/12/23 09:55:04;;;;;;;45.97;31.67;;;;;;;-0.50;100.00;100595.06;5030310;28;20315;-83
2021/12/23 09:57:30;;;;;;;49.92;29.75;;;;;;;-0.46;100.00;100593.94;5025945;28;20079;-83
2021/12/23 09:59:55;;;;;;;44.50;26.83;;;;;;;-0.39;100.00;100586.47;5026352;28;20677;-82
2021/12/23 10:02:22;;;;;;;49.90;30.45;;;;;;;-0.36;100.00;100585.41;5008704;28;20041;-82
2021/12/23 10:04:47;;;;;;;43.40;27.92;;;;;;;-0.36;100.00;100574.88;5044723;28;20127;-82
2021/12/23 10:07:13;;;;;;;44.88;27.63;;;;;;;-0.35;100.00;100576.56;5026270;28;20204;-82
2021/12/23 10:09:49;;;;;;;50.95;32.15;;;;;;;-0.34;100.00;100571.19;5028309;28;20048;-83
2021/12/23 10:31:44;;;;;;;40.28;25.92;;;;;;;-0.19;100.00;100527.16;5043967;28;20138;-83
2021/12/23 10:37:23;;;;;;;47.38;28.73;;;;;;;-0.10;100.00;100512.50;5041919;28;20052;-83
2021/12/23 10:39:51;;;;;;;44.70;27.60;;;;;;;-0.07;100.00;100518.41;5027068;28;20040;-84
2021/12/23 10:42:25;;;;;;;41.63;27.00;;;;;;;0.01;100.00;100525.81;5043737;28;20048;-85
2021/12/23 10:44:57;;;;;;;32.55;19.17;;;;;;;0.04;100.00;100509.78;5044354;28;20045;-85
2021/12/23 10:47:33;;;;;;;40.70;22.63;;;;;;;0.10;100.00;100509.34;5041270;28;20048;-84
2021/12/23 10:50:30;;;;;;;44.42;30.33;;;;;;;0.17;100.00;100492.19;5010531;28;20540;-84
2021/12/23 10:53:09;;;;;;;44.50;26.23;;;;;;;0.19;100.00;100471.78;5035358;28;20418;-83
2021/12/23 10:58:21;;;;;;;37.80;23.38;;;;;;;0.30;100.00;100463.13;5043714;28;20131;-85
2021/12/23 11:00:53;;;;;;;44.65;28.10;;;;;;;0.36;100.00;100467.97;5007869;28;20144;-85
2021/12/23 11:03:31;;;;;;;39.25;21.67;;;;;;;0.41;100.00;100459.75;5021854;28;20069;-84
2021/12/23 11:06:03;;;;;;;38.88;23.67;;;;;;;0.43;100.00;100456.06;5010060;28;20039;-84
2021/12/23 11:31:42;;;;;;;33.83;16.10;;;;;;;0.73;100.00;100385.31;5046128;28;20043;-83
2021/12/23 11:41:51;;;;;;;38.00;23.35;;;;;;;0.88;100.00;100371.81;5042070;28;20039;-83
2021/12/23 11:43:51;;;;;;;;;;;;;;;0.92;100.00;100368.94;5017442;28;20497;-83
2021/12/23 11:46:24;;;;;;;38.80;23.13;;;;;;;0.85;100.00;100355.34;5023797;28;20421;-84
2021/12/23 11:48:53;;;;;;;33.67;21.17;;;;;;;0.90;100.00;100363.78;5041464;28;20053;-83
2021/12/23 11:51:42;;;;;;;37.63;26.38;;;;;;;0.96;100.00;100360.69;5017094;28;20489;-83
2021/12/23 11:54:10;;;;;;;35.53;20.42;;;;;;;1.00;100.00;100351.56;5012051;28;20378;-83
2021/12/23 11:56:40;;;;;;;39.17;23.65;;;;;;;1.04;100.00;100354.84;5001584;28;20041;-83
2021/12/23 11:59:09;;;;;;;35.65;19.27;;;;;;;1.08;100.00;100346.56;5022590;28;20041;-83
2021/12/23 12:01:44;;;;;;;35.53;22.77;;;;;;;1.13;100.00;100341.78;5023740;28;20076;-84
2021/12/23 12:04:13;;;;;;;34.80;22.95;;;;;;;1.18;100.00;100332.66;5025079;28;20076;-84
2021/12/23 12:06:43;;;;;;;36.70;23.95;;;;;;;1.22;100.00;100319.13;5019537;28;20053;-84
2021/12/23 12:09:14;;;;;;;40.78;25.10;;;;;;;1.26;100.00;100325.00;5004915;28;20512;-84
2021/12/23 12:11:47;;;;;;;34.20;19.83;;;;;;;1.30;100.00;100326.47;5025752;28;20060;-84